createdAt,value
2019-02-08T00:00:45.473Z,99.90
2019-02-08T00:03:15.487Z,99.90
2019-02-08T00:05:44.793Z,99.90
2019-02-08T00:08:14.196Z,99.90
2019-02-08T00:10:43.585Z,99.90
2019-02-08T00:13:13.138Z,99.90
2019-02-08T00:15:42.536Z,99.90
2019-02-08T00:18:12.137Z,99.90
2019-02-08T00:20:41.387Z,99.90
2019-02-08T00:23:10.721Z,99.90
2019-02-08T00:25:40.463Z,99.90
2019-02-08T00:28:09.970Z,99.90
2019-02-08T00:30:39.294Z,99.90
2019-02-08T00:33:08.975Z,99.90
2019-02-08T00:35:38.298Z,99.90
2019-02-08T00:38:07.891Z,99.90
2019-02-08T00:40:37.407Z,99.90
2019-02-08T00:43:06.705Z,99.90
2019-02-08T00:45:36.012Z,99.90
2019-02-08T00:48:05.502Z,99.90
2019-02-08T00:50:34.836Z,99.90
2019-02-08T00:53:04.151Z,99.90
2019-02-08T00:55:33.416Z,99.90
2019-02-08T00:58:02.883Z,99.90
2019-02-08T01:00:32.167Z,99.90
2019-02-08T01:03:01.476Z,99.90
2019-02-08T01:05:30.787Z,99.90
2019-02-08T01:08:00.024Z,99.90
2019-02-08T01:10:35.411Z,99.90
2019-02-08T01:13:05.347Z,99.90
2019-02-08T01:15:34.853Z,99.90
2019-02-08T01:18:05.149Z,99.90
2019-02-08T01:20:53.732Z,99.90
2019-02-08T01:23:23.279Z,99.90
2019-02-08T01:25:52.574Z,99.90
2019-02-08T01:28:21.827Z,99.90
2019-02-08T01:30:51.133Z,99.90
2019-02-08T01:33:20.393Z,99.90
2019-02-08T01:35:49.630Z,99.90
2019-02-08T01:38:18.898Z,99.90
2019-02-08T01:40:48.144Z,99.90
2019-02-08T01:43:17.550Z,99.90
2019-02-08T01:45:46.885Z,99.90
2019-02-08T01:48:16.112Z,99.90
2019-02-08T01:50:47.029Z,99.90
2019-02-08T01:53:18.031Z,99.90
2019-02-08T01:55:48.936Z,99.90
2019-02-08T01:58:18.228Z,99.90
2019-02-08T02:00:47.542Z,99.90
2019-02-08T02:03:16.913Z,99.90
2019-02-08T02:05:46.232Z,99.90
2019-02-08T02:08:15.480Z,99.90
2019-02-08T02:10:45.838Z,99.90
2019-02-08T02:13:15.077Z,99.90
2019-02-08T02:15:46.432Z,99.90
2019-02-08T02:18:15.734Z,99.90
2019-02-08T02:20:44.975Z,99.90
2019-02-08T02:23:15.865Z,99.90
2019-02-08T02:25:45.416Z,99.90
2019-02-08T02:28:14.713Z,99.90
2019-02-08T02:30:44.213Z,99.90
2019-02-08T02:33:14.277Z,99.90
2019-02-08T02:35:43.978Z,99.90
2019-02-08T02:38:13.271Z,99.90
2019-02-08T02:40:42.636Z,99.90
2019-02-08T02:43:12.186Z,99.90
2019-02-08T02:45:41.667Z,99.90
2019-02-08T02:48:12.569Z,99.90
2019-02-08T02:50:42.147Z,99.90
2019-02-08T02:53:11.707Z,99.90
2019-02-08T02:55:41.024Z,99.90
2019-02-08T02:58:10.392Z,99.90
2019-02-08T03:00:42.557Z,99.90
2019-02-08T03:03:12.544Z,99.90
2019-02-08T03:05:41.948Z,99.90
2019-02-08T03:08:13.449Z,99.90
2019-02-08T03:10:42.838Z,99.90
2019-02-08T03:13:12.414Z,99.90
2019-02-08T03:15:41.803Z,99.90
2019-02-08T03:18:11.176Z,99.90
2019-02-08T03:20:40.398Z,99.90
2019-02-08T03:23:09.690Z,99.90
2019-02-08T03:25:39.136Z,99.90
2019-02-08T03:28:08.468Z,99.90
2019-02-08T03:30:39.418Z,99.90
2019-02-08T03:33:08.742Z,99.90
2019-02-08T03:35:37.995Z,99.90
2019-02-08T03:38:07.443Z,99.90
2019-02-08T03:40:36.730Z,99.90
2019-02-08T03:43:06.249Z,99.90
2019-02-08T03:45:37.285Z,99.90
2019-02-08T03:48:07.246Z,99.90
2019-02-08T03:50:36.549Z,99.90
2019-02-08T03:53:06.643Z,99.90
2019-02-08T03:55:35.992Z,99.90
2019-02-08T03:58:06.347Z,99.90
2019-02-08T04:00:43.819Z,99.90
2019-02-08T04:03:13.187Z,99.90
2019-02-08T04:05:42.643Z,99.90
2019-02-08T04:08:11.985Z,99.90
2019-02-08T04:10:41.361Z,99.90
2019-02-08T04:13:10.790Z,99.90
2019-02-08T04:15:40.199Z,99.90
2019-02-08T04:18:09.599Z,99.90
2019-02-08T04:20:38.911Z,99.90
2019-02-08T04:23:09.528Z,99.90
2019-02-08T04:25:38.822Z,99.90
2019-02-08T04:28:08.063Z,99.90
2019-02-08T04:30:37.310Z,99.90
2019-02-08T04:33:06.620Z,99.90
2019-02-08T04:35:35.964Z,99.90
2019-02-08T04:38:05.541Z,99.90
2019-02-08T04:40:34.764Z,99.90
2019-02-08T04:43:04.184Z,99.90
2019-02-08T04:45:33.440Z,99.90
2019-02-08T04:48:03.384Z,99.90
2019-02-08T04:50:32.625Z,99.90
2019-02-08T04:53:01.941Z,99.90
2019-02-08T04:55:31.181Z,99.90
2019-02-08T04:58:00.421Z,99.90
2019-02-08T05:00:35.262Z,99.90
2019-02-08T05:03:05.726Z,99.90
2019-02-08T05:05:35.328Z,99.90
2019-02-08T05:08:05.288Z,99.90
2019-02-08T05:10:35.291Z,99.90
2019-02-08T05:13:05.756Z,99.90
2019-02-08T05:15:35.033Z,99.90
2019-02-08T05:18:04.489Z,99.90
2019-02-08T05:20:33.813Z,99.90
2019-02-08T05:23:03.417Z,99.90
2019-02-08T05:25:32.656Z,99.90
2019-02-08T05:28:01.901Z,99.90
2019-02-08T05:30:37.175Z,99.90
2019-02-08T05:33:06.962Z,99.90
2019-02-08T05:35:36.373Z,99.90
2019-02-08T05:38:05.752Z,99.90
2019-02-08T05:40:35.008Z,99.90
2019-02-08T05:43:06.286Z,99.90
2019-02-08T05:45:35.746Z,99.90
2019-02-08T05:48:05.455Z,99.90
2019-02-08T05:50:34.699Z,99.90
2019-02-08T05:53:04.031Z,99.90
2019-02-08T05:55:33.887Z,99.90
2019-02-08T05:58:03.390Z,99.90
2019-02-08T06:00:40.238Z,99.90
2019-02-08T06:03:09.627Z,99.90
2019-02-08T06:05:39.809Z,99.90
2019-02-08T06:08:09.906Z,99.90
2019-02-08T06:10:39.296Z,99.90
2019-02-08T06:13:09.840Z,99.90
2019-02-08T06:15:39.554Z,99.90
2019-02-08T06:18:10.011Z,99.90
2019-02-08T06:20:40.114Z,99.90
2019-02-08T06:23:09.585Z,99.90
2019-02-08T06:25:39.051Z,99.90
2019-02-08T06:28:08.583Z,99.90
2019-02-08T06:30:38.126Z,99.90
2019-02-08T06:33:08.009Z,99.90
2019-02-08T06:35:37.485Z,99.90
2019-02-08T06:38:07.258Z,99.90
2019-02-08T06:40:42.191Z,99.90
2019-02-08T06:43:11.591Z,99.90
2019-02-08T06:45:41.198Z,99.90
2019-02-08T06:48:11.769Z,99.90
2019-02-08T06:50:41.129Z,99.90
2019-02-08T06:53:10.428Z,99.90
2019-02-08T06:55:39.937Z,99.90
2019-02-08T06:58:15.217Z,99.90
2019-02-08T07:00:50.911Z,99.90
2019-02-08T07:03:38.404Z,99.90
2019-02-08T07:06:12.078Z,99.90
2019-02-08T07:08:58.319Z,99.90
2019-02-08T07:11:41.189Z,99.90
2019-02-08T07:14:27.242Z,99.90
2019-02-08T07:17:20.266Z,99.90
2019-02-08T07:19:53.891Z,99.90
2019-02-08T07:22:39.611Z,99.90
2019-02-08T07:25:23.396Z,99.90
2019-02-08T07:28:12.371Z,99.90
2019-02-08T07:31:01.661Z,99.90
2019-02-08T07:33:32.527Z,99.90
2019-02-08T07:36:06.639Z,99.90
2019-02-08T07:38:37.524Z,99.90
2019-02-08T07:41:20.989Z,99.90
2019-02-08T07:43:52.408Z,99.90
2019-02-08T07:46:33.017Z,99.90
2019-02-08T07:49:10.185Z,99.90
2019-02-08T07:51:44.153Z,99.90
2019-02-08T07:54:24.174Z,99.90
2019-02-08T07:56:56.539Z,99.90
2019-02-08T07:59:52.846Z,99.90
2019-02-08T08:02:24.196Z,99.90
2019-02-08T08:05:01.115Z,99.90
2019-02-08T08:07:34.830Z,99.90
2019-02-08T08:10:09.013Z,99.90
2019-02-08T08:12:55.359Z,99.90
2019-02-08T08:15:26.268Z,99.90
2019-02-08T08:17:57.205Z,99.90
2019-02-08T08:20:44.995Z,99.90
2019-02-08T08:23:20.783Z,99.90
2019-02-08T08:26:00.699Z,99.90
2019-02-08T08:28:37.602Z,99.90
2019-02-08T08:31:14.039Z,99.90
2019-02-08T08:33:48.981Z,99.90
2019-02-08T08:36:41.163Z,99.90
2019-02-08T08:39:25.277Z,99.90
2019-02-08T08:42:09.733Z,99.90
2019-02-08T08:44:54.107Z,99.90
2019-02-08T08:47:44.520Z,99.90
2019-02-08T08:50:31.150Z,99.90
2019-02-08T08:53:23.099Z,99.90
2019-02-08T08:56:00.991Z,99.90
2019-02-08T08:58:35.899Z,99.90
2019-02-08T09:01:26.378Z,99.90
2019-02-08T09:04:15.268Z,99.90
2019-02-08T09:06:54.097Z,99.90
2019-02-08T09:09:55.377Z,99.90
2019-02-08T09:12:49.115Z,99.90
2019-02-08T09:15:29.970Z,99.90
2019-02-08T09:18:10.967Z,99.90
2019-02-08T09:21:11.967Z,99.90
2019-02-08T09:24:03.949Z,99.90
2019-02-08T09:26:52.446Z,99.90
2019-02-08T09:29:36.845Z,99.90
2019-02-08T09:32:27.435Z,99.90
2019-02-08T09:34:59.750Z,99.90
2019-02-08T09:37:38.061Z,99.90
2019-02-08T09:40:19.327Z,99.90
2019-02-08T09:43:03.403Z,99.90
2019-02-08T09:45:35.757Z,99.90
2019-02-08T09:48:24.628Z,99.90
2019-02-08T09:51:13.436Z,99.90
2019-02-08T09:54:08.512Z,99.90
2019-02-08T09:56:51.554Z,99.90
2019-02-08T09:59:33.173Z,99.90
2019-02-08T10:02:34.550Z,99.90
2019-02-08T10:05:40.235Z,99.90
2019-02-08T10:08:32.477Z,99.90
2019-02-08T10:11:22.794Z,99.90
2019-02-08T10:14:14.672Z,99.90
2019-02-08T10:17:13.164Z,99.90
2019-02-08T10:20:08.385Z,99.90
2019-02-08T10:22:49.742Z,99.90
2019-02-08T10:25:38.821Z,99.90
2019-02-08T10:28:19.967Z,99.90
2019-02-08T10:31:01.347Z,99.90
2019-02-08T10:34:06.832Z,99.90
2019-02-08T10:37:13.518Z,99.90
2019-02-08T10:40:05.636Z,99.90
2019-02-08T10:43:11.515Z,99.90
2019-02-08T10:45:58.767Z,99.90
2019-02-08T10:48:59.898Z,99.90
2019-02-08T10:51:38.185Z,99.90
2019-02-08T10:54:34.748Z,99.90
2019-02-08T10:57:31.332Z,99.90
2019-02-08T11:00:29.796Z,99.90
2019-02-08T11:03:23.092Z,99.90
2019-02-08T11:05:58.051Z,99.90
2019-02-08T11:08:33.286Z,99.90
2019-02-08T11:11:33.695Z,99.90
2019-02-08T11:14:23.295Z,99.90
2019-02-08T11:17:10.704Z,99.90
2019-02-08T11:19:38.900Z,99.90
2019-02-08T11:22:08.113Z,99.90
2019-02-08T11:24:37.451Z,99.90
2019-02-08T11:27:08.394Z,99.90
2019-02-08T11:29:37.622Z,99.90
2019-02-08T11:32:07.806Z,99.90
2019-02-08T11:34:37.031Z,99.90
2019-02-08T11:37:06.526Z,99.90
2019-02-08T11:39:35.908Z,99.90
2019-02-08T11:42:17.166Z,99.90
2019-02-08T11:44:46.439Z,99.90
2019-02-08T11:47:15.741Z,99.90
2019-02-08T11:49:45.071Z,99.90
2019-02-08T11:52:14.303Z,99.90
2019-02-08T11:54:43.560Z,99.90
2019-02-08T11:57:12.868Z,99.90
2019-02-08T11:59:42.124Z,99.90
2019-02-08T12:02:11.361Z,99.90
2019-02-08T12:04:40.877Z,99.90
2019-02-08T12:07:10.910Z,99.90
2019-02-08T12:09:40.133Z,99.90
2019-02-08T12:12:10.139Z,99.90
2019-02-08T12:14:39.428Z,99.90
2019-02-08T12:17:08.725Z,99.90
2019-02-08T12:19:38.060Z,99.90
2019-02-08T12:22:07.439Z,99.90
2019-02-08T12:24:36.684Z,99.90
2019-02-08T12:27:06.720Z,99.90
2019-02-08T12:29:35.948Z,99.90
2019-02-08T12:32:05.339Z,99.90
2019-02-08T12:34:34.603Z,99.90
2019-02-08T12:37:04.031Z,99.60
2019-02-08T12:39:33.353Z,99.50
2019-02-08T12:42:02.600Z,98.90
2019-02-08T12:44:31.842Z,98.70
2019-02-08T12:47:01.187Z,98.70
2019-02-08T12:49:30.427Z,98.70
2019-02-08T12:51:59.659Z,98.30
2019-02-08T12:54:28.913Z,97.90
2019-02-08T12:56:58.408Z,97.80
2019-02-08T12:59:27.641Z,97.50
2019-02-08T13:01:56.865Z,97.70
2019-02-08T13:04:26.293Z,97.60
2019-02-08T13:07:17.111Z,97.40
2019-02-08T13:09:46.337Z,96.90
2019-02-08T13:12:15.586Z,96.90
2019-02-08T13:14:44.836Z,96.60
2019-02-08T13:17:14.093Z,96.50
2019-02-08T13:19:43.384Z,95.90
2019-02-08T13:22:12.696Z,95.70
2019-02-08T13:24:41.980Z,95.40
2019-02-08T13:27:11.214Z,95.40
2019-02-08T13:29:42.164Z,95.20
2019-02-08T13:32:11.399Z,95.30
2019-02-08T13:34:40.687Z,94.70
2019-02-08T13:37:11.256Z,94.20
2019-02-08T13:39:40.539Z,93.90
2019-02-08T13:42:09.855Z,93.60
2019-02-08T13:44:39.111Z,93.50
2019-02-08T13:47:08.408Z,93.50
2019-02-08T13:49:37.643Z,93.60
2019-02-08T13:52:06.972Z,93.20
2019-02-08T13:54:36.241Z,92.80
2019-02-08T13:57:06.001Z,92.60
2019-02-08T13:59:35.319Z,92.50
2019-02-08T14:02:04.703Z,92.40
2019-02-08T14:04:33.947Z,92.50
2019-02-08T14:07:03.329Z,92.40
2019-02-08T14:09:32.573Z,92.20
2019-02-08T14:12:01.832Z,91.70
2019-02-08T14:14:31.139Z,92.00
2019-02-08T14:17:01.394Z,92.30
2019-02-08T14:19:30.639Z,92.20
2019-02-08T14:21:59.874Z,92.50
2019-02-08T14:24:29.084Z,92.60
2019-02-08T14:26:59.232Z,92.90
2019-02-08T14:29:28.463Z,92.90
2019-02-08T14:31:57.710Z,92.90
2019-02-08T14:34:26.943Z,92.60
2019-02-08T14:36:56.879Z,92.60
2019-02-08T14:39:26.130Z,92.70
2019-02-08T14:41:55.381Z,92.80
2019-02-08T14:44:24.615Z,92.80
2019-02-08T14:46:54.705Z,93.00
2019-02-08T14:49:23.922Z,93.40
2019-02-08T14:51:53.304Z,93.30
2019-02-08T14:54:22.525Z,93.30
2019-02-08T14:56:51.803Z,93.20
2019-02-08T14:59:21.036Z,93.30
2019-02-08T15:01:50.262Z,93.30
2019-02-08T15:04:19.480Z,93.10
2019-02-08T15:06:49.181Z,92.80
2019-02-08T15:09:20.151Z,92.90
2019-02-08T15:11:49.536Z,93.00
2019-02-08T15:14:18.785Z,92.90
2019-02-08T15:16:48.917Z,93.10
2019-02-08T15:19:19.876Z,93.20
2019-02-08T15:21:49.199Z,93.50
2019-02-08T15:24:18.430Z,93.40
2019-02-08T15:26:47.661Z,93.50
2019-02-08T15:29:17.650Z,93.60
2019-02-08T15:31:46.896Z,93.70
2019-02-08T15:34:16.114Z,93.70
2019-02-08T15:36:49.423Z,93.60
2019-02-08T15:39:16.434Z,93.70
2019-02-08T15:41:45.687Z,93.90
2019-02-08T15:44:14.985Z,94.00
2019-02-08T15:46:44.376Z,94.20
2019-02-08T15:49:14.080Z,94.40
2019-02-08T15:51:43.504Z,94.50
2019-02-08T15:54:12.794Z,94.70
2019-02-08T15:56:42.057Z,94.90
2019-02-08T15:59:11.286Z,95.10
2019-02-08T16:01:40.546Z,95.30
2019-02-08T16:04:09.833Z,95.50
2019-02-08T16:06:39.065Z,95.70
2019-02-08T16:09:10.501Z,95.90
2019-02-08T16:11:39.882Z,96.20
2019-02-08T16:14:09.191Z,96.50
2019-02-08T16:16:38.507Z,97.20
2019-02-08T16:19:07.735Z,97.70
2019-02-08T16:21:37.285Z,98.30
2019-02-08T16:24:06.963Z,99.10
2019-02-08T16:26:36.179Z,99.80
2019-02-08T16:29:05.896Z,99.90
2019-02-08T16:31:35.206Z,99.90
2019-02-08T16:34:04.779Z,99.90
2019-02-08T16:36:34.008Z,99.90
2019-02-08T16:39:07.484Z,99.90
2019-02-08T16:41:36.731Z,99.90
2019-02-08T16:44:06.245Z,99.90
2019-02-08T16:46:35.562Z,99.90
2019-02-08T16:49:05.247Z,99.90
2019-02-08T16:51:34.497Z,99.90
2019-02-08T16:54:04.828Z,99.90
2019-02-08T16:56:34.130Z,99.90
2019-02-08T16:59:04.771Z,99.90
2019-02-08T17:01:34.058Z,99.90
2019-02-08T17:04:04.479Z,99.90
2019-02-08T17:06:33.729Z,99.90
2019-02-08T17:09:03.244Z,99.90
2019-02-08T17:11:32.480Z,99.90
2019-02-08T17:14:01.713Z,99.90
2019-02-08T17:16:31.044Z,99.90
2019-02-08T17:19:00.319Z,99.90
2019-02-08T17:21:29.577Z,99.90
2019-02-08T17:23:58.794Z,99.90
2019-02-08T17:26:28.057Z,99.90
2019-02-08T17:28:57.291Z,99.90
2019-02-08T17:31:26.509Z,99.90
2019-02-08T17:33:55.739Z,99.90
2019-02-08T17:36:24.982Z,99.90
2019-02-08T17:38:54.224Z,99.90
2019-02-08T17:41:23.477Z,99.90
2019-02-08T17:43:53.127Z,99.90
2019-02-08T17:46:22.647Z,99.90
2019-02-08T17:48:51.908Z,99.90
2019-02-08T17:51:21.180Z,99.90
2019-02-08T17:53:51.083Z,99.90
2019-02-08T17:56:20.340Z,99.90
2019-02-08T17:58:49.603Z,99.90
2019-02-08T18:01:18.863Z,99.90
2019-02-08T18:03:48.101Z,99.90
2019-02-08T18:06:17.343Z,99.90
2019-02-08T18:08:46.606Z,99.90
2019-02-08T18:11:15.872Z,99.90
2019-02-08T18:13:45.160Z,99.90
2019-02-08T18:16:14.399Z,99.90
2019-02-08T18:18:43.637Z,99.90
2019-02-08T18:21:12.862Z,99.90
2019-02-08T18:23:42.089Z,99.90
2019-02-08T18:26:11.420Z,99.90
2019-02-08T18:28:42.039Z,99.90
2019-02-08T18:31:11.345Z,99.90
2019-02-08T18:33:40.573Z,99.90
2019-02-08T18:36:09.809Z,99.90
2019-02-08T18:38:39.057Z,99.90
2019-02-08T18:41:08.292Z,99.90
2019-02-08T18:43:37.521Z,99.90
2019-02-08T18:46:07.036Z,99.90
2019-02-08T18:48:36.268Z,99.90
2019-02-08T18:51:05.663Z,99.90
2019-02-08T18:53:34.905Z,99.90
2019-02-08T18:56:04.353Z,99.90
2019-02-08T18:58:33.740Z,99.90
2019-02-08T19:01:02.994Z,99.90
2019-02-08T19:03:32.299Z,99.90
2019-02-08T19:06:01.652Z,99.90
2019-02-08T19:08:30.926Z,99.90
2019-02-08T19:11:00.162Z,99.90
2019-02-08T19:13:29.410Z,99.90
2019-02-08T19:15:58.730Z,99.90
2019-02-08T19:18:27.977Z,99.90
2019-02-08T19:20:57.423Z,99.90
2019-02-08T19:23:26.662Z,99.90
2019-02-08T19:25:56.150Z,99.90
2019-02-08T19:28:26.712Z,99.90
2019-02-08T19:30:56.341Z,99.90
2019-02-08T19:33:25.708Z,99.90
2019-02-08T19:35:55.016Z,99.90
2019-02-08T19:38:24.343Z,99.90
2019-02-08T19:40:53.651Z,99.90
2019-02-08T19:43:23.158Z,99.90
2019-02-08T19:45:52.607Z,99.90
2019-02-08T19:48:22.138Z,99.90
2019-02-08T19:50:51.624Z,99.90
2019-02-08T19:53:20.952Z,99.90
2019-02-08T19:55:51.607Z,99.90
2019-02-08T19:58:20.894Z,99.90
2019-02-08T20:00:50.218Z,99.90
2019-02-08T20:03:19.487Z,99.90
2019-02-08T20:05:48.746Z,99.90
2019-02-08T20:08:18.054Z,99.90
2019-02-08T20:10:51.204Z,99.90
2019-02-08T20:13:20.832Z,99.90
2019-02-08T20:15:50.229Z,99.90
2019-02-08T20:18:19.598Z,99.90
2019-02-08T20:20:48.919Z,99.90
2019-02-08T20:23:18.169Z,99.90
2019-02-08T20:25:47.394Z,99.90
2019-02-08T20:28:16.648Z,99.90
2019-02-08T20:30:45.902Z,99.90
2019-02-08T20:33:15.211Z,99.90
2019-02-08T20:35:46.316Z,99.90
2019-02-08T20:38:15.627Z,99.90
2019-02-08T20:40:47.478Z,99.90
2019-02-08T20:43:17.023Z,99.90
2019-02-08T20:45:46.501Z,99.90
2019-02-08T20:48:18.212Z,99.90
2019-02-08T20:50:48.008Z,99.90
2019-02-08T20:53:17.680Z,99.90
2019-02-08T20:55:47.002Z,99.90
2019-02-08T20:58:16.674Z,99.90
2019-02-08T21:00:48.771Z,99.90
2019-02-08T21:03:20.837Z,99.90
2019-02-08T21:05:50.235Z,99.90
2019-02-08T21:08:20.254Z,99.90
2019-02-08T21:10:49.622Z,99.90
2019-02-08T21:13:19.043Z,99.90
2019-02-08T21:15:48.299Z,99.90
2019-02-08T21:18:17.623Z,99.90
2019-02-08T21:20:47.303Z,99.90
2019-02-08T21:23:22.958Z,99.90
2019-02-08T21:25:52.575Z,99.90
2019-02-08T21:28:21.943Z,99.90
2019-02-08T21:30:51.641Z,99.90
2019-02-08T21:33:31.166Z,99.90
2019-02-08T21:36:00.469Z,99.90
2019-02-08T21:38:29.699Z,99.90
2019-02-08T21:40:59.020Z,99.90
2019-02-08T21:43:28.262Z,99.90
2019-02-08T21:45:57.584Z,99.90
2019-02-08T21:48:26.822Z,99.90
2019-02-08T21:50:56.070Z,99.90
2019-02-08T21:53:25.321Z,99.90
2019-02-08T21:55:54.720Z,99.90
2019-02-08T21:58:23.961Z,99.90
2019-02-08T22:00:53.270Z,99.90
2019-02-08T22:03:22.489Z,99.90
2019-02-08T22:05:55.104Z,99.90
2019-02-08T22:08:24.419Z,99.90
2019-02-08T22:10:53.801Z,99.90
2019-02-08T22:13:23.055Z,99.90
2019-02-08T22:15:52.348Z,99.90
2019-02-08T22:18:21.588Z,99.90
2019-02-08T22:20:50.827Z,99.90
2019-02-08T22:23:20.560Z,99.90
2019-02-08T22:25:49.949Z,99.90
2019-02-08T22:28:19.199Z,99.90
2019-02-08T22:30:48.462Z,99.90
2019-02-08T22:33:17.736Z,99.90
2019-02-08T22:35:46.986Z,99.90
2019-02-08T22:38:16.299Z,99.90
2019-02-08T22:40:45.766Z,99.90
2019-02-08T22:43:15.681Z,99.90
2019-02-08T22:45:44.919Z,99.90
2019-02-08T22:48:14.186Z,99.90
2019-02-08T22:50:43.429Z,99.90
2019-02-08T22:53:13.621Z,99.90
2019-02-08T22:55:42.922Z,99.90
2019-02-08T22:58:12.162Z,99.90
2019-02-08T23:00:54.035Z,99.90
2019-02-08T23:03:24.691Z,99.90
2019-02-08T23:05:53.929Z,99.90
2019-02-08T23:08:23.246Z,99.90
2019-02-08T23:10:52.578Z,99.90
2019-02-08T23:13:21.872Z,99.90
2019-02-08T23:15:51.121Z,99.90
2019-02-08T23:18:20.360Z,99.90
2019-02-08T23:20:49.591Z,99.90
2019-02-08T23:23:18.820Z,99.90
2019-02-08T23:25:48.064Z,99.90
2019-02-08T23:28:17.435Z,99.90
2019-02-08T23:30:46.657Z,99.90
2019-02-08T23:33:16.048Z,99.90
2019-02-08T23:35:45.356Z,99.90
2019-02-08T23:38:14.673Z,99.90
2019-02-08T23:40:43.926Z,99.90
2019-02-08T23:43:13.191Z,99.90
2019-02-08T23:45:42.531Z,99.90
2019-02-08T23:48:11.756Z,99.90
2019-02-08T23:50:41.020Z,99.90
2019-02-08T23:53:16.785Z,99.90
2019-02-08T23:55:46.340Z,99.90
2019-02-08T23:58:15.638Z,99.90
